Time;durP1;ratioP1;P1;durP2;ratioP2;P2;SDS_P1;SDS_P2;PMS_P1;PMS_P2;Temp;Humidity;BMP_temperature;BMP_pressure;BME280_temperature;BME280_humidity;BME280_pressure;Samples;Min_cycle;Max_cycle;Signal;HPM_P1;HPM_P2
2022/03/29 00:00:24;;;;;;;13.25;8.27;;;;;;;8.16;58.28;95775.69;6366506;22;20003;-61
2022/03/29 00:02:49;;;;;;;18.13;8.48;;;;;;;8.17;57.77;95772.91;6366305;22;20007;-61
2022/03/29 00:05:15;;;;;;;9.88;7.05;;;;;;;8.19;57.40;95775.44;6366957;22;20069;-61
2022/03/29 00:07:40;;;;;;;7.90;6.93;;;;;;;8.19;57.71;95778.06;6365612;22;20284;-61
2022/03/29 00:10:06;;;;;;;9.10;6.93;;;;;;;8.22;58.35;95779.59;6366374;22;20002;-61
2022/03/29 00:12:34;;;;;;;12.65;8.00;;;;;;;8.21;58.82;95765.66;6368325;22;20081;-61
2022/03/29 00:15:00;;;;;;;9.27;6.72;;;;;;;8.19;59.02;95770.19;6367797;22;20010;-61
2022/03/29 00:17:25;;;;;;;8.75;6.82;;;;;;;8.21;58.25;95768.25;6367788;22;20030;-61
2022/03/29 00:19:50;;;;;;;7.53;6.70;;;;;;;8.21;59.31;95768.25;6368379;22;20081;-63
2022/03/29 00:22:16;;;;;;;12.65;7.50;;;;;;;8.19;59.68;95759.69;6368462;22;20405;-61
2022/03/29 00:24:42;;;;;;;8.60;6.93;;;;;;;8.20;59.56;95757.91;6340451;22;20388;-61
2022/03/29 00:27:07;;;;;;;9.05;7.45;;;;;;;8.21;58.90;95746.47;6368644;22;19998;-61
2022/03/29 00:29:33;;;;;;;7.80;6.80;;;;;;;8.19;60.00;95749.19;6368231;22;20032;-60
2022/03/29 00:31:58;;;;;;;8.77;7.10;;;;;;;8.18;59.74;95742.28;6368262;22;20502;-61
2022/03/29 00:34:24;;;;;;;9.88;7.18;;;;;;;8.13;60.61;95741.84;6367778;22;20473;-61
2022/03/29 00:36:50;;;;;;;12.30;7.15;;;;;;;8.09;60.17;95745.69;6367869;22;20165;-61
2022/03/29 00:39:15;;;;;;;7.43;6.72;;;;;;;8.07;59.76;95742.31;6368229;22;20006;-61
2022/03/29 00:41:40;;;;;;;8.20;6.65;;;;;;;8.05;59.50;95729.34;6367874;22;19999;-61
2022/03/29 00:44:06;;;;;;;7.78;6.63;;;;;;;8.09;59.07;95727.31;6368198;22;20439;-61
2022/03/29 00:46:35;;;;;;;8.48;7.63;;;;;;;8.09;59.04;95716.84;6368689;22;20006;-62
2022/03/29 00:49:01;;;;;;;10.40;7.47;;;;;;;8.04;60.35;95717.22;6367941;22;20010;-61
2022/03/29 00:51:27;;;;;;;8.07;6.90;;;;;;;7.99;60.61;95717.56;6368227;22;20435;-61
2022/03/29 00:53:53;;;;;;;8.65;6.63;;;;;;;7.93;61.04;95706.75;6368250;22;20052;-61
2022/03/29 00:56:19;;;;;;;7.18;6.38;;;;;;;7.93;60.72;95707.59;6368413;22;20002;-61
2022/03/29 00:58:45;;;;;;;7.78;6.45;;;;;;;7.91;61.30;95704.28;6368336;22;20005;-61
2022/03/29 01:01:12;;;;;;;10.68;6.55;;;;;;;7.88;61.10;95694.84;6368174;22;20849;-61
2022/03/29 01:03:37;;;;;;;6.88;6.25;;;;;;;7.88;60.17;95694.03;6368054;22;20026;-61
2022/03/29 01:06:03;;;;;;;9.23;6.80;;;;;;;7.89;60.42;95701.75;6368237;22;19994;-62
2022/03/29 01:08:28;;;;;;;7.22;6.40;;;;;;;7.88;60.70;95686.19;6339693;22;20227;-61
2022/03/29 01:10:54;;;;;;;7.28;6.57;;;;;;;7.85;61.55;95689.88;6368959;22;20385;-61
2022/03/29 01:13:19;;;;;;;8.13;7.35;;;;;;;7.79;62.36;95689.53;6367729;22;20074;-61
2022/03/29 01:15:46;;;;;;;9.95;6.65;;;;;;;7.74;61.98;95680.25;6368724;22;20030;-61
2022/03/29 01:18:13;;;;;;;8.32;6.28;;;;;;;7.73;61.39;95675.13;6368471;22;20003;-61
2022/03/29 01:20:40;;;;;;;7.13;6.15;;;;;;;7.75;62.44;95678.47;6368433;22;20010;-61
2022/03/29 01:23:08;;;;;;;7.22;6.55;;;;;;;7.73;62.63;95678.59;6368311;22;20434;-61
2022/03/29 01:25:36;;;;;;;8.27;6.03;;;;;;;7.69;62.92;95671.94;6368620;22;20025;-62
2022/03/29 01:28:03;;;;;;;7.40;5.93;;;;;;;7.67;62.87;95666.00;6368318;22;20010;-61
2022/03/29 01:30:29;;;;;;;8.88;6.40;;;;;;;7.67;61.87;95663.38;6368563;22;20488;-61
2022/03/29 01:32:55;;;;;;;6.72;6.03;;;;;;;7.68;61.70;95657.19;6368533;22;20013;-61
2022/03/29 01:35:24;;;;;;;7.78;6.70;;;;;;;7.73;62.10;95654.16;6368634;22;20029;-61
2022/03/29 01:37:51;;;;;;;7.18;6.13;;;;;;;7.68;62.64;95659.81;6368759;22;20013;-61
2022/03/29 01:40:19;;;;;;;7.13;6.30;;;;;;;7.63;62.81;95646.25;6368614;22;19998;-61
2022/03/29 01:42:50;;;;;;;7.60;6.53;;;;;;;7.58;62.67;95635.28;6368430;22;20429;-61
2022/03/29 01:45:16;;;;;;;7.47;6.38;;;;;;;7.61;61.92;95637.66;6368763;22;19994;-61
2022/03/29 01:47:42;;;;;;;7.82;6.78;;;;;;;7.61;61.59;95629.78;6368248;22;20011;-61
2022/03/29 01:50:09;;;;;;;7.22;6.55;;;;;;;7.57;62.48;95623.16;6368797;22;20047;-62
2022/03/29 01:52:45;;;;;;;8.73;6.72;;;;;;;7.44;63.31;95620.69;6341309;22;20009;-61
2022/03/29 01:55:11;;;;;;;;;;;;;;;7.41;63.05;95618.31;6368736;22;20002;-61
2022/03/29 01:57:37;;;;;;;7.60;6.88;;;;;;;7.46;62.15;95618.78;6367905;22;20376;-62
2022/03/29 02:02:52;;;;;;;9.25;7.22;;;;;;;7.55;61.72;95610.19;6368462;22;20083;-61
2022/03/29 02:05:18;;;;;;;10.23;7.20;;;;;;;7.53;62.80;95600.78;6368274;22;20441;-61
2022/03/29 02:07:44;;;;;;;7.32;6.63;;;;;;;7.46;63.40;95595.19;6366848;22;20030;-61
2022/03/29 02:10:14;;;;;;;9.27;8.27;;;;;;;7.47;63.33;95586.38;6367305;22;20002;-61
2022/03/29 02:12:40;;;;;;;12.18;9.27;;;;;;;7.48;62.62;95582.81;6368204;22;20035;-62
2022/03/29 02:15:06;;;;;;;9.85;8.90;;;;;;;7.48;62.90;95580.19;6368182;22;20002;-61
2022/03/29 02:17:31;;;;;;;8.98;8.18;;;;;;;7.45;62.70;95586.53;6367943;22;20002;-61
2022/03/29 02:19:56;;;;;;;7.85;7.03;;;;;;;7.45;63.42;95578.66;6368212;22;20003;-60
2022/03/29 02:22:22;;;;;;;8.57;7.68;;;;;;;7.50;62.20;95574.84;6368080;22;20087;-60
2022/03/29 02:24:47;;;;;;;9.68;8.70;;;;;;;7.52;62.17;95572.91;6368617;22;20081;-61
2022/03/29 02:27:13;;;;;;;13.65;9.27;;;;;;;7.48;63.82;95580.19;6368400;22;20009;-61
2022/03/29 02:29:38;;;;;;;9.35;7.93;;;;;;;7.41;64.18;95572.03;6368438;22;20034;-61
2022/03/29 02:32:05;;;;;;;10.38;8.70;;;;;;;7.38;63.40;95567.00;6368445;22;20051;-61
2022/03/29 02:34:31;;;;;;;9.88;8.88;;;;;;;7.42;62.81;95570.22;6339829;22;20014;-61
2022/03/29 02:36:56;;;;;;;11.30;8.77;;;;;;;7.43;63.23;95559.63;6368433;22;19999;-61
2022/03/29 02:39:21;;;;;;;14.43;8.30;;;;;;;7.40;64.15;95562.47;6368343;22;20013;-61
2022/03/29 02:41:47;;;;;;;10.10;9.00;;;;;;;7.38;63.59;95558.34;6368221;22;20006;-61
2022/03/29 02:44:12;;;;;;;9.70;7.68;;;;;;;7.40;62.83;95559.84;6340357;22;20006;-61
2022/03/29 02:46:38;;;;;;;13.68;8.05;;;;;;;7.40;63.42;95559.84;6368083;22;20434;-61
2022/03/29 02:49:03;;;;;;;8.98;8.07;;;;;;;7.34;63.56;95559.53;6367529;22;20107;-61
2022/03/29 02:51:28;;;;;;;10.90;9.15;;;;;;;7.39;63.08;95560.81;6368121;22;20065;-61
2022/03/29 02:53:54;;;;;;;9.23;8.32;;;;;;;7.37;65.11;95567.16;6368571;22;19994;-61
2022/03/29 02:56:19;;;;;;;9.48;8.48;;;;;;;7.31;64.06;95565.84;6368325;22;20417;-61
2022/03/29 02:58:44;;;;;;;9.75;8.75;;;;;;;7.27;63.67;95559.22;6367665;22;20048;-61
2022/03/29 03:01:10;;;;;;;11.05;9.88;;;;;;;7.22;64.28;95556.13;6368118;22;20014;-61
2022/03/29 03:03:35;;;;;;;9.90;8.90;;;;;;;7.25;63.50;95556.69;6368224;22;20006;-61
2022/03/29 03:06:00;;;;;;;16.40;8.95;;;;;;;7.24;63.44;95559.47;6368224;22;20419;-61
2022/03/29 03:08:27;;;;;;;12.57;8.57;;;;;;;7.19;64.86;95554.59;6368061;22;20006;-61
2022/03/29 03:10:52;;;;;;;12.77;9.05;;;;;;;7.12;64.70;95561.28;6368097;22;20002;-61
2022/03/29 03:13:17;;;;;;;8.90;8.05;;;;;;;7.06;65.30;95565.22;6367753;22;20040;-61
2022/03/29 03:15:43;;;;;;;11.85;9.07;;;;;;;7.03;63.97;95552.38;6368036;22;20002;-61
2022/03/29 03:18:09;;;;;;;9.68;8.43;;;;;;;7.00;65.01;95552.63;6368171;22;20051;-61
2022/03/29 03:20:35;;;;;;;12.15;8.73;;;;;;;6.94;65.51;95550.50;6367713;22;20002;-60
2022/03/29 03:23:01;;;;;;;8.35;7.55;;;;;;;6.89;65.79;95553.50;6368240;22;20137;-61
2022/03/29 03:25:27;;;;;;;9.32;8.13;;;;;;;6.80;65.79;95541.97;6368153;22;20009;-61
2022/03/29 03:27:52;;;;;;;8.80;7.95;;;;;;;6.76;65.95;95555.41;6367811;22;20003;-62
2022/03/29 03:30:18;;;;;;;10.48;7.57;;;;;;;6.73;65.21;95551.25;6367402;22;20089;-61
2022/03/29 03:32:43;;;;;;;8.98;8.10;;;;;;;6.72;65.49;95560.03;6367026;22;20295;-61
2022/03/29 03:35:10;;;;;;;8.57;7.70;;;;;;;6.73;65.25;95551.25;6368061;22;20184;-61
2022/03/29 03:37:36;;;;;;;9.60;7.38;;;;;;;6.70;66.54;95562.81;6367558;22;20017;-61
2022/03/29 03:40:04;;;;;;;9.60;8.40;;;;;;;6.63;66.81;95558.16;6368108;22;20002;-61
2022/03/29 03:42:29;;;;;;;10.20;8.57;;;;;;;6.62;66.86;95553.88;6367824;22;20081;-61
2022/03/29 03:44:57;;;;;;;10.57;8.10;;;;;;;6.65;66.79;95545.78;6368201;22;20022;-61
2022/03/29 03:47:22;;;;;;;9.45;7.65;;;;;;;6.65;67.23;95548.41;6369774;22;20014;-61
2022/03/29 03:49:47;;;;;;;8.80;7.90;;;;;;;6.66;66.46;95545.69;6369931;22;20388;-61
2022/03/29 03:52:13;;;;;;;10.10;8.48;;;;;;;6.72;65.61;95539.13;6369994;22;19999;-61
2022/03/29 03:54:38;;;;;;;8.00;7.30;;;;;;;6.74;65.15;95534.59;6369879;22;20051;-61
2022/03/29 03:57:04;;;;;;;10.35;8.98;;;;;;;6.66;66.23;95534.38;6370067;22;20010;-61
2022/03/29 03:59:30;;;;;;;9.88;7.72;;;;;;;6.58;66.43;95541.06;6369855;22;20013;-61
2022/03/29 04:01:56;;;;;;;8.73;7.85;;;;;;;6.56;66.12;95539.50;6369623;22;20034;-61
2022/03/29 04:04:21;;;;;;;9.55;8.23;;;;;;;6.56;65.68;95542.13;6369579;22;20002;-60
2022/03/29 04:06:47;;;;;;;8.48;7.68;;;;;;;6.53;66.34;95543.22;6341105;22;20065;-61
2022/03/29 04:09:12;;;;;;;10.65;8.10;;;;;;;6.48;67.16;95532.25;6369446;22;20003;-61
2022/03/29 04:11:38;;;;;;;9.02;7.25;;;;;;;6.41;66.28;95536.31;6369888;22;19998;-61
2022/03/29 04:14:04;;;;;;;9.48;7.85;;;;;;;6.40;66.11;95529.41;6370015;22;19999;-61
2022/03/29 04:16:29;;;;;;;15.23;8.15;;;;;;;6.44;65.95;95526.47;6369852;22;20443;-60
2022/03/29 04:18:55;;;;;;;9.15;8.25;;;;;;;6.40;66.54;95525.00;6369631;22;20009;-60
2022/03/29 04:21:20;;;;;;;11.43;7.50;;;;;;;6.39;66.21;95520.72;6369256;22;20005;-61
2022/03/29 04:23:45;;;;;;;11.00;7.28;;;;;;;6.50;64.64;95513.84;6369684;22;19998;-61
2022/03/29 04:26:11;;;;;;;9.00;7.72;;;;;;;6.48;64.67;95518.38;6369657;22;19998;-61
2022/03/29 04:28:37;;;;;;;12.82;9.02;;;;;;;6.46;65.50;95518.47;6369148;22;20438;-61
2022/03/29 04:31:02;;;;;;;9.15;7.72;;;;;;;6.38;66.56;95518.25;6369342;22;20010;-61
2022/03/29 04:33:28;;;;;;;12.55;8.13;;;;;;;6.26;66.17;95515.63;6369794;22;20003;-61
2022/03/29 04:35:55;;;;;;;15.73;8.38;;;;;;;6.19;66.22;95516.22;6369127;22;20002;-62
2022/03/29 04:38:21;;;;;;;8.65;7.80;;;;;;;6.12;66.20;95506.25;6369511;22;20324;-61
2022/03/29 04:40:46;;;;;;;10.38;7.95;;;;;;;6.13;66.25;95510.53;6369443;22;20002;-61
2022/03/29 04:43:12;;;;;;;14.88;8.57;;;;;;;6.14;65.62;95511.38;6369425;22;20430;-61
2022/03/29 04:45:37;;;;;;;10.73;8.20;;;;;;;6.15;66.29;95506.00;6369479;22;20013;-61
2022/03/29 04:48:03;;;;;;;10.77;8.63;;;;;;;6.05;66.55;95493.78;6369163;22;20011;-61
2022/03/29 04:50:29;;;;;;;10.88;8.75;;;;;;;6.00;66.91;95502.78;6369620;22;20006;-61
2022/03/29 04:52:55;;;;;;;13.50;8.63;;;;;;;5.96;66.50;95497.88;6369400;22;20006;-61
2022/03/29 04:55:20;;;;;;;9.55;8.23;;;;;;;5.93;66.79;95495.53;6369305;22;20358;-61
2022/03/29 04:57:48;;;;;;;9.93;8.90;;;;;;;5.90;67.64;95496.59;6368953;22;20303;-61
2022/03/29 05:00:16;;;;;;;11.60;9.07;;;;;;;5.85;67.72;95499.56;6369386;22;20002;-61
2022/03/29 05:02:46;;;;;;;14.63;8.77;;;;;;;5.86;67.19;95497.78;6369552;22;20060;-61
2022/03/29 05:05:12;;;;;;;10.60;9.55;;;;;;;5.85;66.86;95498.72;6369267;22;20047;-60
2022/03/29 05:07:38;;;;;;;12.02;8.98;;;;;;;5.88;67.38;95501.94;6369031;22;20002;-61
2022/03/29 05:10:05;;;;;;;13.73;10.15;;;;;;;5.87;67.58;95500.28;6369285;22;20335;-61
2022/03/29 05:12:38;;;;;;;12.00;9.35;;;;;;;5.74;68.16;95507.38;6369278;22;20055;-61
2022/03/29 05:15:04;;;;;;;10.52;9.10;;;;;;;5.66;69.22;95507.13;6369111;22;19998;-61
2022/03/29 05:17:31;;;;;;;18.75;10.07;;;;;;;5.68;68.51;95497.41;6368956;22;20137;-61
2022/03/29 05:19:56;;;;;;;11.60;9.38;;;;;;;5.74;68.34;95508.22;6369022;22;20005;-61
2022/03/29 05:22:22;;;;;;;17.38;10.15;;;;;;;5.82;67.50;95506.78;6367869;22;20003;-61
2022/03/29 05:24:47;;;;;;;17.13;11.15;;;;;;;5.82;68.52;95509.41;6368783;22;20002;-61
2022/03/29 05:27:12;;;;;;;12.80;9.40;;;;;;;5.80;68.87;95509.53;6340746;22;20407;-60
2022/03/29 05:29:38;;;;;;;15.05;9.02;;;;;;;5.83;68.06;95505.84;6368644;22;20357;-61
2022/03/29 05:32:04;;;;;;;13.93;8.88;;;;;;;5.84;67.89;95510.13;6367424;22;20036;-61
2022/03/29 05:34:29;;;;;;;13.75;8.40;;;;;;;5.81;68.12;95505.13;6365563;22;20002;-61
2022/03/29 05:36:54;;;;;;;12.25;9.27;;;;;;;5.82;67.54;95506.78;6365545;22;20371;-61
2022/03/29 05:39:20;;;;;;;11.45;9.30;;;;;;;5.83;67.76;95501.47;6337974;22;20213;-61
2022/03/29 05:41:45;;;;;;;18.17;8.98;;;;;;;5.90;67.75;95503.59;6366619;22;20009;-61
2022/03/29 05:44:11;;;;;;;13.27;9.23;;;;;;;5.83;68.29;95504.06;6368590;22;20006;-61
2022/03/29 05:49:20;;;;;;;20.73;9.15;;;;;;;5.83;68.15;95508.44;6368387;22;20060;-61
2022/03/29 05:51:46;;;;;;;17.60;9.85;;;;;;;5.83;68.02;95500.63;6368380;22;20003;-62
2022/03/29 05:54:11;;;;;;;10.63;9.43;;;;;;;5.78;69.02;95500.16;6368452;22;20028;-60
2022/03/29 05:56:36;;;;;;;13.60;8.48;;;;;;;5.73;69.24;95506.56;6368619;22;20044;-61
2022/03/29 05:59:02;;;;;;;12.85;9.27;;;;;;;5.77;68.91;95501.09;6368641;22;19999;-63
2022/03/29 06:01:27;;;;;;;12.63;8.95;;;;;;;5.82;69.19;95494.56;6368949;22;20457;-61
2022/03/29 06:03:53;;;;;;;11.32;9.13;;;;;;;5.83;68.71;95491.00;6368461;22;20005;-61
2022/03/29 06:06:19;;;;;;;11.20;9.38;;;;;;;5.97;68.02;95497.78;6368415;22;20335;-61
2022/03/29 06:08:44;;;;;;;13.55;8.95;;;;;;;6.11;67.96;95496.75;6366963;22;20081;-62
2022/03/29 06:11:09;;;;;;;10.57;9.02;;;;;;;6.19;68.18;95501.38;6367084;22;20002;-62
2022/03/29 06:13:35;;;;;;;12.15;9.20;;;;;;;6.30;67.80;95508.38;6367202;22;20344;-62
2022/03/29 06:16:02;;;;;;;12.57;9.00;;;;;;;6.37;67.35;95500.91;6368408;22;20423;-62
2022/03/29 06:18:28;;;;;;;11.27;10.00;;;;;;;6.47;67.10;95501.00;6368141;22;20002;-62
2022/03/29 06:20:54;;;;;;;11.50;10.38;;;;;;;6.55;67.40;95496.00;6368251;22;20053;-62
2022/03/29 06:23:19;;;;;;;11.57;9.30;;;;;;;6.61;68.04;95495.50;6368419;22;20337;-62
2022/03/29 06:25:46;;;;;;;16.30;10.80;;;;;;;6.68;67.41;95491.47;6368011;22;20006;-62
2022/03/29 06:28:13;;;;;;;13.23;10.80;;;;;;;6.80;66.53;95486.19;6368230;22;20006;-61
2022/03/29 06:30:39;;;;;;;15.07;9.13;;;;;;;6.91;68.01;95490.53;6368364;22;20073;-62
2022/03/29 06:33:05;;;;;;;17.23;9.20;;;;;;;7.04;66.55;95486.00;6367465;22;20071;-62
2022/03/29 06:35:31;;;;;;;15.32;10.20;;;;;;;7.17;66.93;95484.00;6367739;22;20002;-63
2022/03/29 06:37:58;;;;;;;21.08;9.32;;;;;;;7.22;66.82;95488.06;6368155;22;20006;-61
2022/03/29 06:40:26;;;;;;;14.93;9.57;;;;;;;7.39;65.70;95486.66;6367943;22;20001;-61
2022/03/29 06:42:53;;;;;;;11.63;10.23;;;;;;;7.54;65.19;95484.53;6367926;22;20434;-62
2022/03/29 06:45:19;;;;;;;13.43;9.35;;;;;;;7.69;64.54;95492.91;6366820;22;20002;-63
2022/03/29 06:47:45;;;;;;;11.68;9.45;;;;;;;7.83;63.37;95478.63;6366429;22;20014;-61
2022/03/29 06:50:11;;;;;;;13.25;9.00;;;;;;;7.95;62.87;95484.63;6367477;22;20002;-62
2022/03/29 06:52:37;;;;;;;10.07;9.02;;;;;;;8.12;61.90;95484.03;6367335;22;20082;-62
2022/03/29 06:55:04;;;;;;;12.82;8.98;;;;;;;8.24;63.51;95483.94;6367440;22;20324;-61
2022/03/29 06:57:30;;;;;;;16.20;9.35;;;;;;;8.37;62.38;95475.84;6367487;22;20387;-62
2022/03/29 06:59:55;;;;;;;16.75;10.30;;;;;;;8.52;61.84;95473.69;6367313;22;20003;-62
2022/03/29 07:02:21;;;;;;;14.65;10.77;;;;;;;8.60;61.16;95477.31;6367434;22;20430;-62
2022/03/29 07:04:46;;;;;;;18.73;10.27;;;;;;;8.74;60.23;95485.78;6367548;22;20002;-62
2022/03/29 07:07:12;;;;;;;11.57;9.32;;;;;;;8.92;58.90;95480.66;6367431;22;20284;-62
2022/03/29 07:12:21;;;;;;;10.30;8.68;;;;;;;9.67;55.91;95472.19;6367445;22;20017;-62
2022/03/29 07:14:46;;;;;;;12.60;10.23;;;;;;;10.17;54.79;95470.22;6367491;22;20006;-62
2022/03/29 07:17:15;;;;;;;12.45;9.57;;;;;;;10.55;54.26;95468.44;6367409;22;20003;-62
2022/03/29 07:19:41;;;;;;;12.23;8.95;;;;;;;10.98;54.16;95459.97;6367259;22;20038;-62
2022/03/29 07:22:06;;;;;;;12.50;10.57;;;;;;;11.13;54.24;95468.19;6369623;22;20005;-62
2022/03/29 07:24:31;;;;;;;14.60;10.48;;;;;;;11.27;54.15;95466.81;6369442;22;19998;-62
2022/03/29 07:26:57;;;;;;;12.07;9.07;;;;;;;11.44;54.88;95455.44;6369678;22;20002;-62
2022/03/29 07:29:22;;;;;;;10.75;8.73;;;;;;;11.90;52.70;95464.97;6369232;22;20089;-62
2022/03/29 07:31:48;;;;;;;15.68;9.02;;;;;;;12.12;51.64;95460.16;6369560;22;20002;-62
2022/03/29 07:34:14;;;;;;;11.40;8.27;;;;;;;12.08;52.19;95467.56;6369445;22;20430;-62
2022/03/29 07:36:41;;;;;;;14.93;7.90;;;;;;;12.01;51.48;95461.28;6369361;22;20469;-62
2022/03/29 07:39:07;;;;;;;9.50;8.60;;;;;;;11.94;51.41;95463.66;6369165;22;20438;-62
2022/03/29 07:41:32;;;;;;;10.85;8.48;;;;;;;12.32;50.63;95458.94;6369172;22;20006;-62
2022/03/29 07:43:58;;;;;;;9.98;8.93;;;;;;;12.70;49.58;95466.50;6369394;22;20054;-62
2022/03/29 07:46:23;;;;;;;11.05;8.40;;;;;;;12.92;48.22;95466.88;6341113;22;20346;-62
2022/03/29 07:48:49;;;;;;;9.77;7.53;;;;;;;13.00;45.78;95463.44;6368954;22;20025;-61
2022/03/29 07:51:16;;;;;;;10.25;8.13;;;;;;;13.12;46.21;95464.75;6369230;22;20498;-61
2022/03/29 07:53:42;;;;;;;15.18;7.60;;;;;;;13.16;46.34;95462.63;6368936;22;20009;-61
2022/03/29 07:56:07;;;;;;;11.57;7.75;;;;;;;13.25;45.13;95460.81;6369057;22;19999;-61
2022/03/29 07:58:33;;;;;;;8.98;7.28;;;;;;;13.64;43.85;95449.63;6369463;22;20002;-62
2022/03/29 08:00:58;;;;;;;12.20;8.32;;;;;;;14.02;44.02;95449.84;6369243;22;20014;-62
2022/03/29 08:03:27;;;;;;;9.95;7.40;;;;;;;13.90;42.59;95444.09;6369314;22;20002;-62
2022/03/29 08:05:54;;;;;;;15.40;7.80;;;;;;;14.01;41.97;95442.09;6369183;22;20010;-61
2022/03/29 08:08:20;;;;;;;13.00;6.85;;;;;;;14.09;42.33;95442.06;6368936;22;20055;-61
2022/03/29 08:10:47;;;;;;;11.80;6.53;;;;;;;14.42;42.00;95441.13;6369129;22;20124;-62
2022/03/29 08:13:14;;;;;;;9.65;6.50;;;;;;;14.59;42.10;95434.75;6369096;22;20005;-60
2022/03/29 08:15:41;;;;;;;9.75;6.18;;;;;;;14.67;40.93;95430.41;6369285;22;20108;-61
2022/03/29 08:18:08;;;;;;;7.07;6.38;;;;;;;14.92;39.27;95428.47;6368861;22;20009;-61
2022/03/29 08:20:35;;;;;;;7.25;6.35;;;;;;;15.09;38.33;95421.22;6369038;22;20438;-61
2022/03/29 08:23:00;;;;;;;9.35;6.32;;;;;;;15.24;38.29;95417.81;6369004;22;20010;-62
2022/03/29 08:25:32;;;;;;;10.98;5.72;;;;;;;15.23;37.77;95419.63;6368908;22;19999;-59
2022/03/29 08:27:59;;;;;;;10.68;5.68;;;;;;;15.18;37.40;95422.84;6341148;22;20397;-61
2022/03/29 08:30:26;;;;;;;9.68;6.63;;;;;;;15.31;38.86;95418.75;6368933;22;20291;-61
2022/03/29 08:32:51;;;;;;;6.63;5.78;;;;;;;15.72;35.45;95407.78;6368671;22;20131;-62
2022/03/29 08:35:17;;;;;;;9.98;5.93;;;;;;;15.75;35.28;95420.69;6368746;22;20033;-62
2022/03/29 08:37:42;;;;;;;13.32;5.25;;;;;;;15.91;36.14;95416.25;6368095;22;20412;-62
2022/03/29 08:40:13;;;;;;;14.68;6.97;;;;;;;15.80;35.95;95414.00;6368219;22;20013;-62
2022/03/29 08:42:44;;;;;;;10.82;7.25;;;;;;;15.46;36.75;95409.00;6368522;22;20035;-60
2022/03/29 08:45:11;;;;;;;9.02;6.10;;;;;;;15.04;37.45;95408.53;6369048;22;20014;-62
2022/03/29 08:47:37;;;;;;;10.07;6.25;;;;;;;15.24;37.55;95412.53;6368462;22;20020;-59
2022/03/29 08:50:05;;;;;;;7.57;5.82;;;;;;;15.95;36.80;95412.22;6368756;22;20045;-59
2022/03/29 08:52:31;;;;;;;9.27;6.47;;;;;;;16.16;34.75;95408.84;6368338;22;20010;-59
2022/03/29 08:54:57;;;;;;;6.30;5.70;;;;;;;16.17;35.75;95401.69;6368689;22;20443;-59
2022/03/29 08:57:23;;;;;;;8.52;6.07;;;;;;;16.04;33.26;95405.84;6368322;22;20026;-59
2022/03/29 08:59:48;;;;;;;8.18;5.38;;;;;;;16.23;34.83;95403.59;6368180;22;20002;-60
2022/03/29 09:02:18;;;;;;;7.68;6.03;;;;;;;16.65;35.41;95392.44;6367273;22;20053;-59
2022/03/29 09:04:45;;;;;;;6.20;5.60;;;;;;;16.87;33.25;95390.66;6367426;22;19998;-59
2022/03/29 09:07:10;;;;;;;9.63;6.70;;;;;;;16.78;32.83;95392.59;6368327;22;20013;-59
2022/03/29 09:09:41;;;;;;;10.93;6.43;;;;;;;16.76;32.92;95391.97;6368117;22;20077;-60
2022/03/29 09:12:14;;;;;;;7.25;6.50;;;;;;;16.71;34.25;95389.06;6368421;22;20006;-59
2022/03/29 09:14:58;;;;;;;9.93;6.95;;;;;;;17.21;33.21;95383.03;6368261;22;20446;-59
2022/03/29 09:17:31;;;;;;;17.13;6.97;;;;;;;16.90;32.79;95377.78;6368459;22;20069;-59
2022/03/29 09:20:08;;;;;;;7.72;6.97;;;;;;;16.66;35.09;95371.00;6368456;22;20404;-59
2022/03/29 09:22:51;;;;;;;9.13;7.40;;;;;;;16.33;34.51;95372.28;6367841;22;20019;-59
2022/03/29 09:25:20;;;;;;;13.75;8.27;;;;;;;16.01;35.84;95368.19;6340269;22;20081;-59
2022/03/29 09:27:59;;;;;;;11.98;7.07;;;;;;;16.20;33.96;95369.44;6368366;22;20073;-63
2022/03/29 09:30:28;;;;;;;11.73;7.10;;;;;;;16.41;33.47;95359.88;6368316;22;20430;-63
2022/03/29 09:32:53;;;;;;;11.45;6.97;;;;;;;16.33;32.56;95364.31;6368613;22;20002;-63
2022/03/29 09:35:19;;;;;;;16.48;10.88;;;;;;;17.03;30.93;95360.38;6368538;22;20006;-62
2022/03/29 09:37:45;;;;;;;11.55;7.43;;;;;;;17.24;29.53;95354.22;6367933;22;20002;-63
2022/03/29 09:40:12;;;;;;;9.27;7.55;;;;;;;17.45;29.27;95353.34;6368296;22;20438;-62
2022/03/29 09:42:39;;;;;;;12.77;7.82;;;;;;;17.48;27.11;95338.84;6367458;22;20047;-67
2022/03/29 09:45:05;;;;;;;9.05;7.93;;;;;;;17.65;25.07;95336.69;6367633;22;20025;-64
2022/03/29 09:47:30;;;;;;;15.85;8.43;;;;;;;17.85;24.39;95334.13;6367429;22;20018;-67
2022/03/29 09:50:08;;;;;;;9.63;7.53;;;;;;;18.15;23.33;95325.94;6368067;22;20349;-69
2022/03/29 09:52:42;;;;;;;16.05;7.22;;;;;;;17.88;23.45;95325.75;6368126;22;20029;-68
2022/03/29 09:55:20;;;;;;;10.25;7.45;;;;;;;17.29;24.96;95327.03;6367859;22;20030;-69
2022/03/29 09:57:54;;;;;;;10.18;7.88;;;;;;;17.65;24.52;95317.22;6367856;22;19999;-69
2022/03/29 10:00:38;;;;;;;9.52;7.35;;;;;;;17.99;22.94;95311.06;6367354;22;19998;-69
2022/03/29 10:03:09;;;;;;;14.52;7.32;;;;;;;18.36;23.22;95313.50;6367269;22;20388;-69
2022/03/29 10:05:37;;;;;;;14.00;6.90;;;;;;;18.70;23.62;95297.59;6366863;22;20002;-69
2022/03/29 10:10:58;;;;;;;14.07;7.65;;;;;;;19.29;22.15;95290.69;6367905;22;20020;-69
2022/03/29 10:13:24;;;;;;;14.55;7.22;;;;;;;19.39;21.66;95286.75;6367882;22;20006;-69
2022/03/29 10:15:51;;;;;;;10.57;7.50;;;;;;;19.34;20.45;95282.03;6367849;22;20160;-69
2022/03/29 10:18:16;;;;;;;18.35;8.07;;;;;;;19.27;20.28;95283.91;6368014;22;20002;-68
2022/03/29 10:20:42;;;;;;;10.95;7.53;;;;;;;19.07;21.77;95284.72;6367641;22;20009;-68
2022/03/29 10:23:08;;;;;;;10.13;7.22;;;;;;;19.40;21.45;95281.22;6367876;22;19998;-68
2022/03/29 10:25:34;;;;;;;14.65;7.18;;;;;;;19.36;20.47;95277.34;6366963;22;20013;-64
2022/03/29 10:28:01;;;;;;;15.55;7.30;;;;;;;19.24;21.57;95268.31;6367450;22;20007;-64
2022/03/29 10:30:39;;;;;;;16.95;7.63;;;;;;;19.44;20.63;95253.09;6367787;22;20334;-64
2022/03/29 10:33:30;;;;;;;11.55;7.10;;;;;;;19.84;20.39;95262.81;6367816;22;20435;-64
2022/03/29 10:36:11;;;;;;;9.23;6.55;;;;;;;19.92;21.35;95248.44;6367713;22;20009;-62
2022/03/29 10:38:58;;;;;;;9.25;7.10;;;;;;;20.40;20.24;95243.69;6339903;22;20014;-64
2022/03/29 10:41:27;;;;;;;22.77;7.20;;;;;;;20.09;19.84;95240.75;6367810;22;20025;-63
2022/03/29 10:44:01;;;;;;;11.20;6.90;;;;;;;20.64;20.72;95226.06;6367576;22;20002;-63
2022/03/29 10:46:39;;;;;;;14.23;7.05;;;;;;;21.40;20.70;95220.72;6367499;22;20020;-63
2022/03/29 10:49:25;;;;;;;10.95;6.18;;;;;;;22.08;18.99;95219.97;6367254;22;20059;-61
2022/03/29 10:52:05;;;;;;;16.15;7.70;;;;;;;22.22;18.55;95210.72;6367604;22;20330;-61
2022/03/29 10:54:32;;;;;;;21.25;7.45;;;;;;;21.69;17.60;95213.00;6367561;22;20521;-58
2022/03/29 10:57:02;;;;;;;14.32;6.78;;;;;;;21.64;19.41;95207.47;6367612;22;20003;-58
2022/03/29 10:59:29;;;;;;;13.32;7.13;;;;;;;21.22;19.24;95202.78;6367633;22;20005;-59
2022/03/29 11:02:16;;;;;;;19.02;6.45;;;;;;;21.14;20.21;95206.56;6367578;22;20346;-59
2022/03/29 11:05:00;;;;;;;12.43;6.68;;;;;;;21.16;18.24;95199.13;6367449;22;20002;-60
2022/03/29 11:07:25;;;;;;;15.00;7.00;;;;;;;21.16;19.30;95188.41;6366741;22;20442;-63
2022/03/29 11:10:11;;;;;;;15.02;7.32;;;;;;;21.71;19.48;95181.44;6367356;22;20020;-63
2022/03/29 11:12:54;;;;;;;18.42;6.78;;;;;;;21.63;18.06;95184.41;6367111;22;20509;-64
2022/03/29 11:15:25;;;;;;;21.15;7.38;;;;;;;21.51;19.04;95179.00;6367527;22;20002;-62
2022/03/29 11:17:52;;;;;;;14.80;6.53;;;;;;;21.59;19.22;95173.31;6367502;22;20023;-64
2022/03/29 11:20:38;;;;;;;17.25;6.75;;;;;;;21.45;19.23;95169.97;6367573;22;20025;-63
2022/03/29 11:23:05;;;;;;;16.33;6.93;;;;;;;21.39;19.70;95167.38;6367290;22;20077;-64
2022/03/29 11:25:40;;;;;;;17.85;6.30;;;;;;;21.23;19.38;95166.94;6367166;22;20346;-65
2022/03/29 11:28:25;;;;;;;17.80;7.00;;;;;;;21.51;18.27;95151.38;6367055;22;20006;-64
2022/03/29 11:30:56;;;;;;;17.23;6.47;;;;;;;21.45;18.48;95158.47;6367399;22;20006;-63
2022/03/29 11:33:35;;;;;;;15.90;7.03;;;;;;;21.01;19.14;95153.97;6367270;22;20553;-65
2022/03/29 11:36:04;;;;;;;14.95;5.78;;;;;;;21.07;19.27;95148.78;6367310;22;20461;-66
2022/03/29 11:38:32;;;;;;;15.95;7.15;;;;;;;20.78;19.41;95138.50;6367196;22;20011;-68
2022/03/29 11:40:58;;;;;;;21.38;6.82;;;;;;;20.68;19.57;95143.56;6367387;22;20002;-67
2022/03/29 11:43:23;;;;;;;14.00;6.78;;;;;;;20.44;19.80;95133.44;6367269;22;20406;-66
2022/03/29 11:45:52;;;;;;;19.92;6.60;;;;;;;20.63;19.00;95128.16;6367100;22;20077;-67